createdAt,value
2023-03-04T00:00:52.497Z,32.20
2023-03-04T00:01:52.512Z,32.20
2023-03-04T00:02:52.502Z,31.70
2023-03-04T00:03:52.456Z,32.10
2023-03-04T00:04:52.451Z,34.70
2023-03-04T00:05:52.428Z,31.50
2023-03-04T00:06:52.417Z,34.70
2023-03-04T00:07:52.423Z,33.50
2023-03-04T00:08:52.411Z,34.20
2023-03-04T00:09:52.396Z,34.60
2023-03-04T00:10:52.386Z,33.40
2023-03-04T00:11:52.356Z,33.80
2023-03-04T00:12:52.360Z,32.70
2023-03-04T00:13:52.334Z,35.70
2023-03-04T00:14:52.317Z,31.70
2023-03-04T00:15:52.328Z,33.90
2023-03-04T00:16:52.326Z,31.70
2023-03-04T00:17:52.288Z,31.50
2023-03-04T00:18:52.329Z,32.60
2023-03-04T00:19:52.278Z,32.60
2023-03-04T00:20:52.238Z,31.80
2023-03-04T00:21:52.296Z,33.20
2023-03-04T00:22:52.232Z,33.60
2023-03-04T00:23:52.212Z,32.20
2023-03-04T00:24:52.217Z,31.70
2023-03-04T00:25:52.193Z,32.70
2023-03-04T00:26:52.176Z,33.70
2023-03-04T00:27:52.158Z,32.40
2023-03-04T00:28:52.136Z,33.60
2023-03-04T00:29:52.145Z,32.50
2023-03-04T00:30:52.116Z,32.00
2023-03-04T00:31:52.174Z,33.10
2023-03-04T00:32:52.111Z,32.20
2023-03-04T00:33:52.077Z,32.10
2023-03-04T00:34:52.076Z,31.90
2023-03-04T00:35:52.095Z,31.30
2023-03-04T00:36:52.043Z,32.20
2023-03-04T00:37:52.043Z,32.80
2023-03-04T00:38:52.034Z,31.60
2023-03-04T00:39:52.036Z,33.10
2023-03-04T00:40:51.985Z,32.00
2023-03-04T00:41:52.009Z,32.50
2023-03-04T00:42:51.978Z,31.10
2023-03-04T00:43:51.971Z,31.80
2023-03-04T00:44:51.965Z,31.80
2023-03-04T00:45:51.993Z,32.00
2023-03-04T00:46:51.962Z,33.00
2023-03-04T00:47:51.939Z,34.20
2023-03-04T00:48:51.896Z,32.40
2023-03-04T00:49:51.893Z,32.80
2023-03-04T00:50:51.879Z,31.60
2023-03-04T00:51:51.868Z,33.00
2023-03-04T00:52:51.861Z,33.30
2023-03-04T00:53:51.825Z,32.90
2023-03-04T00:54:51.828Z,33.40
2023-03-04T00:55:51.828Z,31.20
2023-03-04T00:56:51.809Z,31.40
2023-03-04T00:57:51.796Z,31.50
2023-03-04T00:58:51.843Z,33.70
2023-03-04T00:59:51.760Z,31.50
2023-03-04T01:00:51.758Z,32.90
2023-03-04T01:01:51.738Z,32.30
2023-03-04T01:02:51.829Z,31.80
2023-03-04T01:03:51.722Z,32.30
2023-03-04T01:04:51.715Z,32.00
2023-03-04T01:05:51.687Z,31.40
2023-03-04T01:06:51.709Z,31.30
2023-03-04T01:07:51.657Z,33.50
2023-03-04T01:08:51.683Z,31.30
2023-03-04T01:09:51.626Z,32.80
2023-03-04T01:10:51.610Z,32.50
2023-03-04T01:11:51.612Z,32.70
2023-03-04T01:12:51.606Z,33.40
2023-03-04T01:13:51.585Z,32.10
2023-03-04T01:14:51.583Z,32.00
2023-03-04T01:15:51.566Z,33.30
2023-03-04T01:16:51.566Z,32.60
2023-03-04T01:17:51.562Z,33.20
2023-03-04T01:18:51.535Z,30.60
2023-03-04T01:19:51.492Z,32.20
2023-03-04T01:20:51.502Z,35.40
2023-03-04T01:21:51.489Z,32.90
2023-03-04T01:22:51.494Z,32.00
2023-03-04T01:23:51.457Z,33.00
2023-03-04T01:24:51.444Z,32.60
2023-03-04T01:25:51.433Z,33.30
2023-03-04T01:26:51.435Z,30.90
2023-03-04T01:27:51.403Z,30.60
2023-03-04T01:28:51.411Z,32.20
2023-03-04T01:29:51.399Z,32.70
2023-03-04T01:30:51.392Z,31.70
2023-03-04T01:31:51.358Z,31.90
2023-03-04T01:32:51.346Z,31.90
2023-03-04T01:33:51.323Z,32.20
2023-03-04T01:34:51.343Z,32.60
2023-03-04T01:35:51.349Z,32.70
2023-03-04T01:36:51.294Z,32.40
2023-03-04T01:37:51.273Z,30.80
2023-03-04T01:38:51.270Z,32.50
2023-03-04T01:39:51.271Z,32.60
2023-03-04T01:40:51.241Z,31.60
2023-03-04T01:41:51.233Z,33.30
2023-03-04T01:42:51.231Z,33.00
2023-03-04T01:43:51.216Z,30.80
2023-03-04T01:44:51.194Z,34.20
2023-03-04T01:45:51.185Z,32.90
2023-03-04T01:46:51.162Z,32.10
2023-03-04T01:47:51.166Z,31.90
2023-03-04T01:48:51.186Z,32.00
2023-03-04T01:49:51.154Z,31.70
2023-03-04T01:50:51.128Z,33.00
2023-03-04T01:51:51.093Z,31.60
2023-03-04T01:52:51.110Z,31.90
2023-03-04T01:53:51.063Z,33.20
2023-03-04T01:54:51.067Z,30.60
2023-03-04T01:55:51.076Z,31.90
2023-03-04T01:56:51.032Z,32.60
2023-03-04T01:57:51.013Z,33.20
2023-03-04T01:58:51.024Z,33.20
2023-03-04T01:59:51.008Z,33.30
2023-03-04T02:00:51.012Z,32.00
2023-03-04T02:01:50.984Z,31.80
2023-03-04T02:02:50.977Z,32.70
2023-03-04T02:03:50.944Z,31.90
2023-03-04T02:04:50.954Z,32.20
2023-03-04T02:05:50.944Z,32.50
2023-03-04T02:06:50.927Z,32.50
2023-03-04T02:07:50.892Z,31.50
2023-03-04T02:08:50.910Z,33.00
2023-03-04T02:09:50.884Z,30.90
2023-03-04T02:10:50.871Z,31.30
2023-03-04T02:11:50.867Z,32.20
2023-03-04T02:12:50.853Z,32.60
2023-03-04T02:13:50.823Z,30.80
2023-03-04T02:14:50.817Z,31.90
2023-03-04T02:15:50.826Z,31.20
2023-03-04T02:16:50.804Z,31.20
2023-03-04T02:17:50.824Z,31.10
2023-03-04T02:18:50.814Z,31.20
2023-03-04T02:19:50.757Z,31.90
2023-03-04T02:20:50.754Z,32.10
2023-03-04T02:21:50.723Z,31.90
2023-03-04T02:22:50.738Z,32.00
2023-03-04T02:23:50.748Z,31.50
2023-03-04T02:24:50.686Z,32.10
2023-03-04T02:25:50.714Z,32.00
2023-03-04T02:26:50.665Z,31.50
2023-03-04T02:27:50.643Z,32.00
2023-03-04T02:28:50.672Z,33.80
2023-03-04T02:29:50.630Z,32.80
2023-03-04T02:30:50.630Z,31.20
2023-03-04T02:31:50.607Z,32.40
2023-03-04T02:32:50.597Z,31.50
2023-03-04T02:33:50.607Z,30.40
2023-03-04T02:34:50.564Z,31.30
2023-03-04T02:35:50.581Z,30.30
2023-03-04T02:36:50.557Z,31.50
2023-03-04T02:37:50.514Z,30.40
2023-03-04T02:38:50.513Z,31.40
2023-03-04T02:39:50.525Z,31.20
2023-03-04T02:40:50.498Z,31.70
2023-03-04T02:41:50.481Z,31.30
2023-03-04T02:42:50.453Z,31.90
2023-03-04T02:43:50.461Z,30.80
2023-03-04T02:44:50.619Z,32.30
2023-03-04T02:45:50.439Z,31.50
2023-03-04T02:46:50.505Z,31.50
2023-03-04T02:47:50.398Z,32.20
2023-03-04T02:48:50.391Z,33.50
2023-03-04T02:49:50.418Z,31.60
2023-03-04T02:50:50.370Z,31.70
2023-03-04T02:51:50.337Z,32.20
2023-03-04T02:52:50.348Z,31.30
2023-03-04T02:53:50.319Z,30.10
2023-03-04T02:54:50.316Z,30.70
2023-03-04T02:55:50.368Z,30.80
2023-03-04T02:56:50.299Z,31.40
2023-03-04T02:57:50.268Z,30.80
2023-03-04T02:58:50.267Z,32.60
2023-03-04T02:59:50.247Z,31.20
2023-03-04T03:00:50.227Z,31.50
2023-03-04T03:01:50.289Z,30.60
2023-03-04T03:02:50.233Z,31.80
2023-03-04T03:03:50.205Z,31.00
2023-03-04T03:04:50.169Z,30.40
2023-03-04T03:05:50.178Z,30.90
2023-03-04T03:06:50.146Z,32.20
2023-03-04T03:07:50.159Z,31.60
2023-03-04T03:08:50.124Z,31.10
2023-03-04T03:09:50.106Z,31.10
2023-03-04T03:10:50.109Z,29.90
2023-03-04T03:11:50.079Z,30.60
2023-03-04T03:12:50.104Z,30.70
2023-03-04T03:13:50.056Z,30.80
2023-03-04T03:14:50.056Z,31.60
2023-03-04T03:15:50.259Z,31.70
2023-03-04T03:16:50.021Z,32.40
2023-03-04T03:17:50.024Z,31.80
2023-03-04T03:18:50.010Z,30.90
2023-03-04T03:19:49.989Z,29.70
2023-03-04T03:20:49.965Z,29.80
2023-03-04T03:21:49.957Z,30.80
2023-03-04T03:22:49.954Z,30.40
2023-03-04T03:23:49.940Z,30.50
2023-03-04T03:24:49.927Z,34.10
2023-03-04T03:25:49.918Z,31.60
2023-03-04T03:26:49.889Z,32.00
2023-03-04T03:27:49.886Z,31.30
2023-03-04T03:28:49.882Z,31.90
2023-03-04T03:29:49.896Z,31.10
2023-03-04T03:30:49.855Z,30.70
2023-03-04T03:31:49.887Z,32.60
2023-03-04T03:32:49.801Z,34.00
2023-03-04T03:33:49.805Z,32.00
2023-03-04T03:34:49.785Z,31.70
2023-03-04T03:35:49.815Z,31.20
2023-03-04T03:36:49.776Z,31.70
2023-03-04T03:37:49.743Z,30.50
2023-03-04T03:38:49.729Z,32.60
2023-03-04T03:39:49.718Z,30.80
2023-03-04T03:40:49.724Z,30.20
2023-03-04T03:41:49.705Z,31.10
2023-03-04T03:42:49.671Z,31.10
2023-03-04T03:43:49.672Z,30.60
2023-03-04T03:44:49.654Z,32.60
2023-03-04T03:45:49.687Z,31.70
2023-03-04T03:46:49.637Z,32.10
2023-03-04T03:47:49.628Z,32.60
2023-03-04T03:48:49.612Z,31.50
2023-03-04T03:49:49.585Z,31.80
2023-03-04T03:50:49.573Z,32.10
2023-03-04T03:51:49.574Z,32.50
2023-03-04T03:52:49.568Z,32.30
2023-03-04T03:53:49.588Z,30.70
2023-03-04T03:54:49.517Z,32.70
2023-03-04T03:55:49.513Z,31.20
2023-03-04T03:56:49.494Z,31.10
2023-03-04T03:57:49.504Z,31.00
2023-03-04T03:58:49.484Z,31.40
2023-03-04T03:59:49.471Z,31.60
2023-03-04T04:00:49.451Z,31.60
2023-03-04T04:01:49.491Z,31.20
2023-03-04T04:02:49.494Z,31.50
2023-03-04T04:03:49.415Z,31.00
2023-03-04T04:04:49.394Z,30.40
2023-03-04T04:05:49.378Z,31.30
2023-03-04T04:06:49.361Z,30.10
2023-03-04T04:07:49.363Z,30.90
2023-03-04T04:08:49.344Z,30.40
2023-03-04T04:09:49.335Z,30.00
2023-03-04T04:10:49.337Z,31.10
2023-03-04T04:11:49.305Z,30.10
2023-03-04T04:12:49.289Z,29.60
2023-03-04T04:13:49.293Z,30.10
2023-03-04T04:14:49.276Z,31.20
2023-03-04T04:15:49.242Z,31.90
2023-03-04T04:16:49.326Z,31.20
2023-03-04T04:17:49.240Z,31.10
2023-03-04T04:18:49.211Z,30.10
2023-03-04T04:19:49.244Z,29.70
2023-03-04T04:20:49.183Z,30.10
2023-03-04T04:21:49.183Z,31.60
2023-03-04T04:22:49.151Z,32.50
2023-03-04T04:23:49.160Z,31.00
2023-03-04T04:24:49.149Z,30.80
2023-03-04T04:25:49.113Z,30.50
2023-03-04T04:26:49.121Z,32.20
2023-03-04T04:27:49.104Z,29.50
2023-03-04T04:28:49.094Z,31.00
2023-03-04T04:29:49.077Z,30.80
2023-03-04T04:30:49.105Z,33.80
2023-03-04T04:31:49.038Z,31.00
2023-03-04T04:32:49.042Z,30.80
2023-03-04T04:33:49.010Z,31.00
2023-03-04T04:34:49.002Z,29.00
2023-03-04T04:35:49.060Z,30.30
2023-03-04T04:36:48.978Z,28.40
2023-03-04T04:37:48.966Z,29.90
2023-03-04T04:38:48.963Z,30.90
2023-03-04T04:39:48.955Z,30.60
2023-03-04T04:40:48.920Z,30.90
2023-03-04T04:41:48.969Z,29.60
2023-03-04T04:42:48.917Z,31.40
2023-03-04T04:43:48.877Z,30.70
2023-03-04T04:44:48.870Z,29.00
2023-03-04T04:45:48.858Z,30.10
2023-03-04T04:46:48.854Z,30.20
2023-03-04T04:47:48.863Z,31.10
2023-03-04T04:48:48.819Z,29.80
2023-03-04T04:49:48.833Z,29.50
2023-03-04T04:50:48.810Z,31.00
2023-03-04T04:51:48.765Z,29.70
2023-03-04T04:52:48.759Z,31.80
2023-03-04T04:53:48.770Z,30.80
2023-03-04T04:54:48.746Z,30.50
2023-03-04T04:55:48.737Z,32.20
2023-03-04T04:56:48.708Z,31.60
2023-03-04T04:57:48.695Z,31.60
2023-03-04T04:58:48.676Z,30.00
2023-03-04T04:59:48.702Z,28.90
2023-03-04T05:00:48.646Z,30.40
2023-03-04T05:01:48.637Z,29.40
2023-03-04T05:02:48.650Z,31.90
2023-03-04T05:03:48.685Z,29.10
2023-03-04T05:04:48.622Z,30.40
2023-03-04T05:05:48.602Z,29.30
2023-03-04T05:06:48.626Z,28.90
2023-03-04T05:07:48.558Z,29.30
2023-03-04T05:08:48.550Z,29.10
2023-03-04T05:09:48.550Z,30.30
2023-03-04T05:10:48.547Z,30.10
2023-03-04T05:11:48.519Z,30.40
2023-03-04T05:12:48.520Z,33.30
2023-03-04T05:13:48.512Z,30.40
2023-03-04T05:14:48.495Z,30.30
2023-03-04T05:15:48.499Z,30.20
2023-03-04T05:16:48.458Z,30.00
2023-03-04T05:17:48.437Z,30.80
2023-03-04T05:18:48.422Z,30.60
2023-03-04T05:19:48.449Z,29.10
2023-03-04T05:20:48.476Z,29.40
2023-03-04T05:21:48.395Z,30.60
2023-03-04T05:22:48.386Z,33.20
2023-03-04T05:23:48.363Z,30.20
2023-03-04T05:24:48.355Z,30.10
2023-03-04T05:25:55.393Z,30.10
2023-03-04T05:26:48.322Z,30.60
2023-03-04T05:27:48.303Z,29.10
2023-03-04T05:28:48.291Z,30.50
2023-03-04T05:29:48.295Z,27.90
2023-03-04T05:30:48.316Z,30.60
2023-03-04T05:31:48.258Z,32.20
2023-03-04T05:32:48.232Z,30.10
2023-03-04T05:33:48.295Z,28.80
2023-03-04T05:34:48.241Z,28.70
2023-03-04T05:35:48.250Z,30.40
2023-03-04T05:36:48.206Z,31.30
2023-03-04T05:37:48.179Z,27.30
2023-03-04T05:38:48.210Z,28.30
2023-03-04T05:39:48.162Z,28.50
2023-03-04T05:40:48.135Z,28.90
2023-03-04T05:41:48.179Z,29.10
2023-03-04T05:42:48.128Z,27.30
2023-03-04T05:43:48.148Z,27.30
2023-03-04T05:44:48.177Z,31.10
2023-03-04T05:45:48.072Z,29.00
2023-03-04T05:46:48.172Z,28.70
2023-03-04T05:47:48.097Z,29.60
2023-03-04T05:48:48.053Z,29.00
2023-03-04T05:49:48.040Z,28.40
2023-03-04T05:50:48.006Z,29.30
2023-03-04T05:51:48.008Z,29.80
2023-03-04T05:52:48.029Z,28.30
2023-03-04T05:53:47.997Z,27.90
2023-03-04T05:54:47.964Z,32.00
2023-03-04T05:55:47.956Z,28.30
2023-03-04T05:56:47.952Z,28.40
2023-03-04T05:57:47.973Z,28.10
2023-03-04T05:58:48.200Z,30.10
2023-03-04T05:59:47.920Z,28.00
2023-03-04T06:00:47.882Z,30.30
2023-03-04T06:01:47.885Z,28.30
2023-03-04T06:02:47.920Z,29.60
2023-03-04T06:03:47.904Z,30.40
2023-03-04T06:04:47.847Z,28.60
2023-03-04T06:05:47.853Z,28.60
2023-03-04T06:06:47.815Z,30.90
2023-03-04T06:07:47.809Z,30.00
2023-03-04T06:08:47.801Z,29.90
2023-03-04T06:09:47.789Z,28.50
2023-03-04T06:10:47.775Z,28.70
2023-03-04T06:11:47.782Z,28.30
2023-03-04T06:12:47.767Z,29.80
2023-03-04T06:13:47.764Z,29.20
2023-03-04T06:14:47.698Z,28.60
2023-03-04T06:15:47.730Z,29.50
2023-03-04T06:16:47.689Z,30.60
2023-03-04T06:17:47.678Z,29.80
2023-03-04T06:18:47.684Z,30.10
2023-03-04T06:19:47.674Z,30.10
2023-03-04T06:20:47.650Z,29.70
2023-03-04T06:21:47.635Z,30.60
2023-03-04T06:22:47.614Z,29.20
2023-03-04T06:23:47.598Z,29.70
2023-03-04T06:24:47.575Z,30.20
2023-03-04T06:25:47.587Z,30.60
2023-03-04T06:26:47.557Z,28.30
2023-03-04T06:27:49.737Z,29.80
2023-03-04T06:28:47.553Z,30.10
2023-03-04T06:29:47.537Z,29.60
2023-03-04T06:30:47.526Z,30.10
2023-03-04T06:31:47.555Z,31.80
2023-03-04T06:32:47.523Z,29.40
2023-03-04T06:33:47.484Z,29.30
2023-03-04T06:34:47.463Z,31.50
2023-03-04T06:35:47.498Z,29.20
2023-03-04T06:36:47.435Z,28.00
2023-03-04T06:37:47.412Z,29.50
2023-03-04T06:38:47.430Z,31.50
2023-03-04T06:39:47.445Z,30.00
2023-03-04T06:40:47.404Z,31.60
2023-03-04T06:41:47.376Z,29.70
2023-03-04T06:42:47.410Z,29.50
2023-03-04T06:43:47.333Z,29.80
2023-03-04T06:44:47.334Z,29.20
2023-03-04T06:45:47.306Z,31.20
2023-03-04T06:46:47.427Z,30.60
2023-03-04T06:47:47.334Z,29.60
2023-03-04T06:48:47.284Z,30.70
2023-03-04T06:49:47.313Z,30.80
2023-03-04T06:50:47.264Z,30.30
2023-03-04T06:51:47.244Z,31.60
2023-03-04T06:52:47.224Z,30.70
2023-03-04T06:53:47.215Z,29.30
2023-03-04T06:54:47.205Z,30.30
2023-03-04T06:55:47.206Z,30.70
2023-03-04T06:56:47.179Z,32.80
2023-03-04T06:57:48.583Z,30.60
2023-03-04T06:58:47.197Z,30.60
2023-03-04T06:59:47.181Z,29.70
2023-03-04T07:00:47.156Z,32.20
2023-03-04T07:01:47.116Z,30.40
2023-03-04T07:02:47.090Z,31.60
2023-03-04T07:03:47.101Z,32.80
2023-03-04T07:04:47.060Z,31.10
2023-03-04T07:05:47.102Z,29.40
2023-03-04T07:06:47.054Z,31.00
2023-03-04T07:07:47.030Z,29.80
2023-03-04T07:08:47.031Z,32.30
2023-03-04T07:09:47.744Z,31.10
2023-03-04T07:10:47.069Z,31.20
2023-03-04T07:11:47.004Z,30.80
2023-03-04T07:12:46.977Z,29.10
2023-03-04T07:13:46.948Z,29.60
2023-03-04T07:14:46.965Z,30.60
2023-03-04T07:15:46.942Z,32.10
2023-03-04T07:16:46.976Z,31.00
2023-03-04T07:17:46.963Z,31.10
2023-03-04T07:18:46.918Z,29.90
2023-03-04T07:19:46.888Z,30.00
2023-03-04T07:20:46.884Z,29.90
2023-03-04T07:21:46.840Z,29.80
2023-03-04T07:22:46.859Z,32.00
2023-03-04T07:23:46.823Z,33.50
2023-03-04T07:24:46.830Z,30.80
2023-03-04T07:25:46.810Z,29.90
2023-03-04T07:26:46.802Z,29.20
2023-03-04T07:27:46.802Z,31.40
2023-03-04T07:28:46.750Z,29.70
2023-03-04T07:29:46.758Z,31.90
2023-03-04T07:30:46.730Z,30.30
2023-03-04T07:31:46.813Z,31.10
2023-03-04T07:32:46.766Z,28.70
2023-03-04T07:33:46.713Z,31.10
2023-03-04T07:34:46.704Z,31.20
2023-03-04T07:35:46.722Z,33.10
2023-03-04T07:36:46.650Z,31.60
2023-03-04T07:37:46.654Z,31.50
2023-03-04T07:38:46.641Z,29.90
2023-03-04T07:39:46.619Z,31.80
2023-03-04T07:40:46.630Z,30.00
2023-03-04T07:41:46.646Z,30.90
2023-03-04T07:42:46.586Z,29.50
2023-03-04T07:43:46.603Z,29.10
2023-03-04T07:44:46.551Z,30.40
2023-03-04T07:45:46.586Z,30.90
2023-03-04T07:46:46.544Z,29.60
2023-03-04T07:47:46.541Z,29.30
2023-03-04T07:48:46.534Z,30.50
2023-03-04T07:49:46.533Z,31.50
2023-03-04T07:50:46.497Z,32.00
2023-03-04T07:51:46.486Z,31.00
2023-03-04T07:52:46.479Z,30.50
2023-03-04T07:53:46.447Z,30.10
2023-03-04T07:54:46.452Z,29.10
2023-03-04T07:55:46.421Z,29.20
2023-03-04T07:56:46.418Z,28.70
2023-03-04T07:57:46.399Z,29.80
2023-03-04T07:58:46.387Z,29.30
2023-03-04T07:59:46.350Z,30.10
2023-03-04T08:00:46.385Z,30.00
2023-03-04T08:01:46.344Z,32.20
2023-03-04T08:02:46.413Z,30.40
2023-03-04T08:03:46.369Z,30.70
2023-03-04T08:04:46.326Z,29.30
2023-03-04T08:05:46.296Z,29.10
2023-03-04T08:06:46.286Z,29.70
2023-03-04T08:07:46.260Z,30.10
2023-03-04T08:08:46.263Z,30.20
2023-03-04T08:09:46.250Z,28.30
2023-03-04T08:10:46.242Z,29.10
2023-03-04T08:11:46.244Z,30.40
2023-03-04T08:12:46.189Z,30.50
2023-03-04T08:13:46.188Z,29.60
2023-03-04T08:14:46.191Z,31.30
2023-03-04T08:15:46.204Z,28.40
2023-03-04T08:16:46.154Z,29.60
2023-03-04T08:17:46.150Z,30.20
2023-03-04T08:18:46.143Z,30.10
2023-03-04T08:19:46.117Z,32.20
2023-03-04T08:20:46.225Z,30.90
2023-03-04T08:21:46.191Z,30.90
2023-03-04T08:22:46.072Z,29.90
2023-03-04T08:23:46.144Z,29.30
2023-03-04T08:24:46.059Z,29.80
2023-03-04T08:25:46.019Z,30.20
2023-03-04T08:26:46.012Z,30.10
2023-03-04T08:27:46.006Z,30.60
2023-03-04T08:28:45.989Z,29.20
2023-03-04T08:29:45.971Z,30.70
2023-03-04T08:30:46.017Z,30.20
2023-03-04T08:31:48.577Z,31.60
2023-03-04T08:32:46.064Z,30.50
2023-03-04T08:33:45.929Z,30.70
2023-03-04T08:34:45.921Z,29.70
2023-03-04T08:35:45.985Z,29.30
2023-03-04T08:36:45.913Z,29.60
2023-03-04T08:37:45.894Z,31.10
2023-03-04T08:38:45.869Z,30.90
2023-03-04T08:39:45.859Z,28.80
2023-03-04T08:40:45.845Z,29.40
2023-03-04T08:41:45.830Z,28.80
2023-03-04T08:42:45.821Z,28.70
2023-03-04T08:43:45.828Z,29.80
2023-03-04T08:44:45.795Z,29.30
2023-03-04T08:45:45.811Z,31.90
2023-03-04T08:46:45.757Z,30.00
2023-03-04T08:47:45.759Z,30.30
2023-03-04T08:48:45.728Z,31.00
2023-03-04T08:49:45.717Z,30.70
2023-03-04T08:50:45.720Z,29.00
2023-03-04T08:51:45.693Z,30.20
2023-03-04T08:52:45.693Z,30.30
2023-03-04T08:53:45.668Z,31.80
2023-03-04T08:54:45.692Z,30.70
2023-03-04T08:55:45.638Z,30.00
2023-03-04T08:56:45.631Z,31.30
2023-03-04T08:57:45.631Z,28.90
2023-03-04T08:58:45.620Z,29.70
2023-03-04T08:59:45.589Z,28.70
2023-03-04T09:00:45.590Z,30.60
2023-03-04T09:01:45.579Z,29.00
2023-03-04T09:02:45.569Z,29.30
2023-03-04T09:03:45.746Z,28.90
2023-03-04T09:04:45.522Z,31.10
2023-03-04T09:05:45.549Z,30.60
2023-03-04T09:06:45.508Z,30.60
2023-03-04T09:07:45.508Z,29.20
2023-03-04T09:08:45.484Z,29.20
2023-03-04T09:09:45.456Z,29.80
2023-03-04T09:10:45.483Z,28.20
2023-03-04T09:11:45.430Z,29.10
2023-03-04T09:12:45.459Z,29.70
2023-03-04T09:13:45.457Z,29.00
2023-03-04T09:14:45.421Z,29.60
2023-03-04T09:15:45.449Z,30.40
2023-03-04T09:16:45.372Z,29.50
2023-03-04T09:17:45.382Z,30.30
2023-03-04T09:18:45.368Z,30.60
2023-03-04T09:19:45.341Z,31.80
2023-03-04T09:20:45.348Z,30.00
2023-03-04T09:21:45.341Z,30.20
2023-03-04T09:22:45.301Z,30.40
2023-03-04T09:23:45.284Z,28.60
2023-03-04T09:24:45.283Z,31.10
2023-03-04T09:25:45.251Z,28.90
2023-03-04T09:26:45.259Z,28.40
2023-03-04T09:27:45.229Z,28.70
2023-03-04T09:28:45.272Z,27.30
2023-03-04T09:29:45.213Z,29.40
2023-03-04T09:30:45.200Z,27.60
2023-03-04T09:31:45.225Z,27.30
2023-03-04T09:32:45.190Z,26.90
2023-03-04T09:33:45.149Z,27.80
2023-03-04T09:34:45.176Z,28.50
2023-03-04T09:35:45.140Z,28.60
2023-03-04T09:36:45.137Z,28.00
2023-03-04T09:37:45.129Z,26.50
2023-03-04T09:38:45.126Z,27.10
2023-03-04T09:39:45.080Z,29.30
2023-03-04T09:40:45.089Z,27.00
2023-03-04T09:41:45.040Z,26.80
2023-03-04T09:42:47.285Z,26.80
2023-03-04T09:43:45.051Z,28.80
2023-03-04T09:44:45.041Z,28.40
2023-03-04T09:45:45.005Z,27.80
2023-03-04T09:46:45.102Z,27.70
2023-03-04T09:47:44.981Z,26.70
2023-03-04T09:48:44.991Z,26.60
2023-03-04T09:49:44.949Z,27.00
2023-03-04T09:50:44.949Z,27.90
2023-03-04T09:51:44.939Z,26.50
2023-03-04T09:52:44.923Z,27.00
2023-03-04T09:53:44.892Z,27.60
2023-03-04T09:54:44.879Z,27.90
2023-03-04T09:55:44.881Z,28.10
2023-03-04T09:56:44.927Z,26.00
2023-03-04T09:57:44.894Z,27.50
2023-03-04T09:58:44.843Z,25.90
2023-03-04T09:59:44.842Z,26.30
2023-03-04T10:00:44.870Z,25.60
2023-03-04T10:01:44.807Z,27.60
2023-03-04T10:02:44.799Z,25.90
2023-03-04T10:03:44.796Z,26.00
2023-03-04T10:04:44.780Z,25.20
2023-03-04T10:05:44.741Z,25.10
2023-03-04T10:06:44.736Z,25.70
2023-03-04T10:07:44.721Z,26.60
2023-03-04T10:08:44.727Z,25.00
2023-03-04T10:09:44.694Z,26.10
2023-03-04T10:10:44.749Z,25.10
2023-03-04T10:11:44.671Z,26.70
2023-03-04T10:12:44.647Z,25.70
2023-03-04T10:13:44.641Z,25.20
2023-03-04T10:14:44.617Z,26.50
2023-03-04T10:15:44.601Z,25.60
2023-03-04T10:16:44.607Z,25.20
2023-03-04T10:17:44.592Z,24.00
2023-03-04T10:18:44.605Z,25.00
2023-03-04T10:19:44.622Z,26.10
2023-03-04T10:20:44.583Z,24.60
2023-03-04T10:21:44.538Z,23.60
2023-03-04T10:22:44.565Z,25.90
2023-03-04T10:23:44.536Z,24.30
2023-03-04T10:24:44.523Z,26.40
2023-03-04T10:25:44.486Z,25.40
2023-03-04T10:26:44.522Z,24.20
2023-03-04T10:27:44.464Z,25.40
2023-03-04T10:28:44.443Z,24.00
2023-03-04T10:29:44.457Z,24.10
2023-03-04T10:30:44.403Z,24.80
2023-03-04T10:31:44.449Z,25.30
2023-03-04T10:32:44.424Z,24.90
2023-03-04T10:33:44.382Z,24.10
2023-03-04T10:34:44.364Z,24.90
2023-03-04T10:35:44.384Z,25.00
2023-03-04T10:36:44.360Z,24.80
2023-03-04T10:37:44.337Z,25.10
2023-03-04T10:38:44.317Z,23.50
2023-03-04T10:39:44.305Z,23.50
2023-03-04T10:40:45.926Z,24.00
2023-03-04T10:41:44.471Z,23.80
2023-03-04T10:42:44.352Z,23.90
2023-03-04T10:43:44.228Z,24.10
2023-03-04T10:44:44.237Z,24.40
2023-03-04T10:45:44.226Z,24.20
2023-03-04T10:46:44.209Z,25.20
2023-03-04T10:47:44.203Z,24.50
2023-03-04T10:48:44.166Z,22.60
2023-03-04T10:49:44.176Z,22.70
2023-03-04T10:50:44.133Z,23.30
2023-03-04T10:51:44.140Z,23.60
2023-03-04T10:52:44.138Z,23.70
2023-03-04T10:53:44.092Z,22.30
2023-03-04T10:54:44.094Z,22.70
2023-03-04T10:55:44.088Z,22.50
2023-03-04T10:56:44.064Z,22.70
2023-03-04T10:57:44.038Z,23.80
2023-03-04T10:58:44.050Z,22.60
2023-03-04T10:59:44.035Z,21.70
2023-03-04T11:00:44.017Z,23.60
2023-03-04T11:01:43.984Z,22.60
2023-03-04T11:02:43.993Z,23.70
2023-03-04T11:03:44.005Z,21.70
2023-03-04T11:04:43.965Z,21.90
2023-03-04T11:05:43.931Z,23.00
2023-03-04T11:06:43.958Z,21.70
2023-03-04T11:07:55.030Z,22.60
2023-03-04T11:08:44.912Z,23.10
2023-03-04T11:09:44.002Z,23.70
2023-03-04T11:10:43.906Z,21.60
2023-03-04T11:11:43.848Z,22.70
2023-03-04T11:12:43.854Z,21.90
2023-03-04T11:13:43.854Z,22.20
2023-03-04T11:14:43.853Z,22.30
2023-03-04T11:15:43.797Z,22.90
2023-03-04T11:16:43.805Z,21.80
2023-03-04T11:17:43.783Z,23.60
2023-03-04T11:18:43.809Z,23.70
2023-03-04T11:19:43.791Z,22.00
2023-03-04T11:20:43.754Z,22.50
2023-03-04T11:21:43.731Z,23.80
2023-03-04T11:22:43.889Z,21.20
2023-03-04T11:23:43.710Z,21.60
2023-03-04T11:24:43.694Z,22.70
2023-03-04T11:25:43.736Z,23.30
2023-03-04T11:26:52.929Z,21.30
2023-03-04T11:27:43.666Z,22.80
2023-03-04T11:28:43.659Z,22.20
2023-03-04T11:29:43.633Z,21.50
2023-03-04T11:30:43.602Z,23.70
2023-03-04T11:31:43.627Z,23.40
2023-03-04T11:32:43.646Z,23.30
2023-03-04T11:33:43.589Z,23.20
2023-03-04T11:34:43.552Z,23.60
2023-03-04T11:35:43.596Z,21.40
2023-03-04T11:36:43.601Z,21.20
2023-03-04T11:37:43.524Z,22.70
2023-03-04T11:38:43.559Z,23.50
2023-03-04T11:39:43.543Z,21.50
2023-03-04T11:40:43.504Z,21.90
2023-03-04T11:41:43.506Z,21.40
2023-03-04T11:42:43.488Z,22.20
2023-03-04T11:43:43.501Z,24.00
2023-03-04T11:44:43.473Z,22.00
2023-03-04T11:45:43.925Z,22.20
2023-03-04T11:46:43.438Z,21.50
2023-03-04T11:47:43.441Z,21.00
2023-03-04T11:48:43.397Z,21.40
2023-03-04T11:49:43.415Z,21.60
2023-03-04T11:50:43.475Z,22.40
2023-03-04T11:51:43.366Z,22.30
2023-03-04T11:52:43.370Z,23.00
2023-03-04T11:53:43.354Z,22.30
2023-03-04T11:54:43.327Z,22.70
2023-03-04T11:55:43.339Z,22.70
2023-03-04T11:56:43.348Z,21.70
2023-03-04T11:57:43.298Z,22.30
2023-03-04T11:58:43.286Z,22.10
2023-03-04T11:59:43.274Z,21.40
2023-03-04T12:00:43.268Z,22.10
2023-03-04T12:01:43.242Z,21.70
2023-03-04T12:02:43.298Z,21.50
2023-03-04T12:03:43.267Z,21.80
2023-03-04T12:04:43.260Z,22.20
2023-03-04T12:05:43.198Z,21.60
2023-03-04T12:06:43.177Z,21.50
2023-03-04T12:07:43.154Z,22.10
2023-03-04T12:08:43.149Z,22.70
2023-03-04T12:09:43.153Z,22.50
2023-03-04T12:10:43.136Z,22.40
2023-03-04T12:11:43.102Z,22.70
2023-03-04T12:12:43.099Z,21.70
2023-03-04T12:13:43.073Z,24.30
2023-03-04T12:14:43.091Z,23.90
2023-03-04T12:15:43.052Z,23.50
2023-03-04T12:16:43.086Z,22.80
2023-03-04T12:17:43.044Z,22.70
2023-03-04T12:18:43.020Z,22.90
2023-03-04T12:19:43.003Z,23.30
2023-03-04T12:20:42.983Z,23.10
2023-03-04T12:21:42.986Z,23.20
2023-03-04T12:22:43.016Z,23.20
2023-03-04T12:23:42.957Z,22.90
2023-03-04T12:24:42.936Z,23.10
2023-03-04T12:25:42.936Z,23.00
2023-03-04T12:26:42.934Z,21.40
2023-03-04T12:27:42.903Z,22.90
2023-03-04T12:28:42.900Z,22.70
2023-03-04T12:29:42.888Z,22.10
2023-03-04T12:30:42.917Z,23.60
2023-03-04T12:31:42.849Z,21.90
2023-03-04T12:32:42.850Z,23.80
2023-03-04T12:33:42.882Z,23.00
2023-03-04T12:34:42.806Z,21.30
2023-03-04T12:35:42.838Z,21.50
2023-03-04T12:36:42.788Z,22.90
2023-03-04T12:37:42.782Z,23.40
2023-03-04T12:38:42.753Z,23.40
2023-03-04T12:39:42.737Z,21.40
2023-03-04T12:40:42.727Z,21.50
2023-03-04T12:41:42.709Z,21.90
2023-03-04T12:42:42.699Z,21.60
2023-03-04T12:43:42.681Z,23.10
2023-03-04T12:44:42.699Z,22.40
2023-03-04T12:45:42.673Z,22.60
2023-03-04T12:46:42.674Z,21.80
2023-03-04T12:47:42.646Z,23.70
2023-03-04T12:48:42.628Z,23.60
2023-03-04T12:49:42.616Z,25.30
2023-03-04T12:50:42.608Z,23.60
2023-03-04T12:51:42.595Z,24.60
2023-03-04T12:52:42.573Z,22.80